sensor_id;sensor_type;location;lat;lon;timestamp;pressure;altitude;pressure_sealevel;temperature;humidity
20115;BME280;10218;42.874;25.320;2023-03-25T00:00:12;96708.53;;;13.49;59.22
20115;BME280;10218;42.874;25.320;2023-03-25T00:02:47;96711.25;;;13.55;59.67
20115;BME280;10218;42.874;25.320;2023-03-25T00:05:16;96707.00;;;13.26;61.51
20115;BME280;10218;42.874;25.320;2023-03-25T00:07:48;96705.44;;;13.45;60.12
20115;BME280;10218;42.874;25.320;2023-03-25T00:10:15;96696.72;;;13.37;60.88
20115;BME280;10218;42.874;25.320;2023-03-25T00:12:42;96704.75;;;13.37;61.42
20115;BME280;10218;42.874;25.320;2023-03-25T00:15:11;96700.41;;;13.29;62.73
20115;BME280;10218;42.874;25.320;2023-03-25T00:17:38;96695.31;;;13.41;61.75
20115;BME280;10218;42.874;25.320;2023-03-25T00:20:07;96691.13;;;13.25;63.77
20115;BME280;10218;42.874;25.320;2023-03-25T00:22:38;96684.34;;;13.01;66.58
20115;BME280;10218;42.874;25.320;2023-03-25T00:25:14;96682.81;;;13.13;65.98
20115;BME280;10218;42.874;25.320;2023-03-25T00:27:44;96679.19;;;12.59;70.67
20115;BME280;10218;42.874;25.320;2023-03-25T00:30:13;96690.88;;;12.23;79.59
20115;BME280;10218;42.874;25.320;2023-03-25T00:32:41;96687.66;;;11.85;85.82
20115;BME280;10218;42.874;25.320;2023-03-25T00:35:12;96689.81;;;11.39;95.56
20115;BME280;10218;42.874;25.320;2023-03-25T00:37:39;96692.34;;;11.26;100.00
20115;BME280;10218;42.874;25.320;2023-03-25T00:40:07;96694.63;;;11.29;100.00
20115;BME280;10218;42.874;25.320;2023-03-25T00:42:35;96690.69;;;11.25;100.00
20115;BME280;10218;42.874;25.320;2023-03-25T00:45:02;96686.91;;;11.20;100.00
20115;BME280;10218;42.874;25.320;2023-03-25T00:47:29;96681.06;;;11.31;98.79
20115;BME280;10218;42.874;25.320;2023-03-25T00:49:57;96686.69;;;11.36;97.25
20115;BME280;10218;42.874;25.320;2023-03-25T00:52:24;96690.09;;;11.66;91.50
20115;BME280;10218;42.874;25.320;2023-03-25T00:54:51;96679.59;;;11.28;97.51
20115;BME280;10218;42.874;25.320;2023-03-25T00:57:19;96687.16;;;11.25;96.75
20115;BME280;10218;42.874;25.320;2023-03-25T00:59:47;96695.31;;;10.87;100.00
20115;BME280;10218;42.874;25.320;2023-03-25T01:02:15;96678.94;;;10.90;100.00
20115;BME280;10218;42.874;25.320;2023-03-25T01:04:46;96676.44;;;10.89;100.00
20115;BME280;10218;42.874;25.320;2023-03-25T01:07:16;96669.53;;;10.80;100.00
20115;BME280;10218;42.874;25.320;2023-03-25T01:09:43;96666.44;;;10.61;100.00
20115;BME280;10218;42.874;25.320;2023-03-25T01:12:14;96669.00;;;10.40;100.00
20115;BME280;10218;42.874;25.320;2023-03-25T01:14:42;96669.28;;;10.60;100.00
20115;BME280;10218;42.874;25.320;2023-03-25T01:17:09;96668.34;;;10.38;100.00
20115;BME280;10218;42.874;25.320;2023-03-25T01:19:37;96666.47;;;10.24;100.00
20115;BME280;10218;42.874;25.320;2023-03-25T01:22:05;96665.81;;;10.22;100.00
20115;BME280;10218;42.874;25.320;2023-03-25T01:24:32;96662.25;;;10.29;100.00
20115;BME280;10218;42.874;25.320;2023-03-25T01:26:59;96654.78;;;10.25;100.00
20115;BME280;10218;42.874;25.320;2023-03-25T01:29:27;96652.31;;;10.01;100.00
20115;BME280;10218;42.874;25.320;2023-03-25T01:31:56;96665.66;;;10.01;100.00
20115;BME280;10218;42.874;25.320;2023-03-25T01:34:23;96653.81;;;10.03;100.00
20115;BME280;10218;42.874;25.320;2023-03-25T01:36:51;96644.34;;;10.15;100.00
20115;BME280;10218;42.874;25.320;2023-03-25T01:39:21;96631.69;;;9.80;100.00
20115;BME280;10218;42.874;25.320;2023-03-25T01:41:49;96644.22;;;9.71;100.00
20115;BME280;10218;42.874;25.320;2023-03-25T01:46:51;96636.66;;;9.98;100.00
20115;BME280;10218;42.874;25.320;2023-03-25T01:49:24;96636.28;;;10.01;100.00
20115;BME280;10218;42.874;25.320;2023-03-25T01:52:17;96635.72;;;9.91;100.00
20115;BME280;10218;42.874;25.320;2023-03-25T01:54:43;96637.63;;;9.82;100.00
20115;BME280;10218;42.874;25.320;2023-03-25T01:57:13;96644.91;;;9.73;100.00
20115;BME280;10218;42.874;25.320;2023-03-25T01:59:44;96641.84;;;9.76;100.00
20115;BME280;10218;42.874;25.320;2023-03-25T02:02:12;96631.97;;;9.62;100.00
20115;BME280;10218;42.874;25.320;2023-03-25T02:04:52;96635.22;;;9.72;100.00
20115;BME280;10218;42.874;25.320;2023-03-25T02:07:26;96625.97;;;9.60;100.00
20115;BME280;10218;42.874;25.320;2023-03-25T02:10:02;96628.91;;;9.73;100.00
20115;BME280;10218;42.874;25.320;2023-03-25T02:12:30;96628.56;;;9.54;100.00
20115;BME280;10218;42.874;25.320;2023-03-25T02:14:58;96632.41;;;9.51;100.00
20115;BME280;10218;42.874;25.320;2023-03-25T02:24:19;96623.91;;;9.70;100.00
20115;BME280;10218;42.874;25.320;2023-03-25T02:37:32;96624.47;;;9.43;100.00
20115;BME280;10218;42.874;25.320;2023-03-25T02:42:37;96625.81;;;9.62;100.00
20115;BME280;10218;42.874;25.320;2023-03-25T02:45:11;96624.63;;;9.41;100.00
20115;BME280;10218;42.874;25.320;2023-03-25T02:47:45;96619.19;;;9.12;100.00
20115;BME280;10218;42.874;25.320;2023-03-25T02:50:17;96607.06;;;9.32;100.00
20115;BME280;10218;42.874;25.320;2023-03-25T02:52:50;96607.22;;;9.31;100.00
20115;BME280;10218;42.874;25.320;2023-03-25T02:55:20;96601.41;;;9.87;100.00
20115;BME280;10218;42.874;25.320;2023-03-25T02:57:50;96588.53;;;10.06;100.00
20115;BME280;10218;42.874;25.320;2023-03-25T03:00:23;96586.56;;;10.22;100.00
20115;BME280;10218;42.874;25.320;2023-03-25T03:02:55;96585.87;;;10.06;100.00
20115;BME280;10218;42.874;25.320;2023-03-25T03:05:30;96587.41;;;9.85;100.00
20115;BME280;10218;42.874;25.320;2023-03-25T03:11:16;96597.12;;;8.95;100.00
20115;BME280;10218;42.874;25.320;2023-03-25T03:16:35;96595.97;;;9.21;100.00
20115;BME280;10218;42.874;25.320;2023-03-25T03:22:40;96599.56;;;8.74;100.00
20115;BME280;10218;42.874;25.320;2023-03-25T03:36:19;96597.53;;;8.84;100.00
20115;BME280;10218;42.874;25.320;2023-03-25T03:38:50;96599.16;;;8.93;100.00
20115;BME280;10218;42.874;25.320;2023-03-25T03:41:22;96598.97;;;8.95;100.00
20115;BME280;10218;42.874;25.320;2023-03-25T03:44:03;96597.12;;;8.95;100.00
20115;BME280;10218;42.874;25.320;2023-03-25T03:46:56;96589.44;;;9.00;100.00
20115;BME280;10218;42.874;25.320;2023-03-25T03:49:49;96597.72;;;9.06;100.00
20115;BME280;10218;42.874;25.320;2023-03-25T03:52:30;96589.50;;;8.53;100.00
20115;BME280;10218;42.874;25.320;2023-03-25T03:55:12;96595.72;;;9.08;100.00
20115;BME280;10218;42.874;25.320;2023-03-25T03:57:47;96572.19;;;9.19;100.00
20115;BME280;10218;42.874;25.320;2023-03-25T04:00:21;96576.09;;;9.69;100.00
20115;BME280;10218;42.874;25.320;2023-03-25T04:02:56;96578.69;;;9.39;100.00
20115;BME280;10218;42.874;25.320;2023-03-25T04:05:26;96583.91;;;9.33;100.00
20115;BME280;10218;42.874;25.320;2023-03-25T04:08:05;96577.69;;;9.18;100.00
20115;BME280;10218;42.874;25.320;2023-03-25T04:10:44;96576.53;;;9.12;100.00
20115;BME280;10218;42.874;25.320;2023-03-25T04:13:20;96586.16;;;8.90;100.00
20115;BME280;10218;42.874;25.320;2023-03-25T04:15:48;96580.81;;;8.98;100.00
20115;BME280;10218;42.874;25.320;2023-03-25T04:18:15;96579.63;;;9.24;100.00
20115;BME280;10218;42.874;25.320;2023-03-25T04:20:43;96582.34;;;9.38;100.00
20115;BME280;10218;42.874;25.320;2023-03-25T04:23:15;96586.37;;;9.12;100.00
20115;BME280;10218;42.874;25.320;2023-03-25T04:25:43;96599.75;;;9.04;100.00
20115;BME280;10218;42.874;25.320;2023-03-25T04:28:13;96586.37;;;9.12;100.00
20115;BME280;10218;42.874;25.320;2023-03-25T04:30:44;96588.59;;;8.77;100.00
20115;BME280;10218;42.874;25.320;2023-03-25T04:33:12;96589.97;;;8.65;100.00
20115;BME280;10218;42.874;25.320;2023-03-25T04:35:39;96583.34;;;8.61;100.00
20115;BME280;10218;42.874;25.320;2023-03-25T04:38:06;96597.72;;;8.83;100.00
20115;BME280;10218;42.874;25.320;2023-03-25T04:40:33;96598.59;;;9.29;100.00
20115;BME280;10218;42.874;25.320;2023-03-25T04:43:01;96604.00;;;9.35;100.00
20115;BME280;10218;42.874;25.320;2023-03-25T04:45:28;96608.06;;;9.31;100.00
20115;BME280;10218;42.874;25.320;2023-03-25T04:47:56;96611.13;;;9.20;100.00
20115;BME280;10218;42.874;25.320;2023-03-25T04:50:27;96607.44;;;9.21;100.00
20115;BME280;10218;42.874;25.320;2023-03-25T04:52:54;96611.06;;;9.06;100.00
20115;BME280;10218;42.874;25.320;2023-03-25T04:55:26;96617.13;;;8.91;100.00
20115;BME280;10218;42.874;25.320;2023-03-25T04:57:53;96616.16;;;8.84;100.00
20115;BME280;10218;42.874;25.320;2023-03-25T05:00:23;96613.28;;;8.63;100.00
20115;BME280;10218;42.874;25.320;2023-03-25T05:02:52;96613.72;;;8.75;100.00
20115;BME280;10218;42.874;25.320;2023-03-25T05:05:22;96598.19;;;8.86;100.00
20115;BME280;10218;42.874;25.320;2023-03-25T05:07:52;96615.75;;;9.04;100.00
20115;BME280;10218;42.874;25.320;2023-03-25T05:10:22;96611.88;;;9.06;100.00
20115;BME280;10218;42.874;25.320;2023-03-25T05:12:49;96611.44;;;9.48;100.00
20115;BME280;10218;42.874;25.320;2023-03-25T05:15:16;96612.91;;;9.51;100.00
20115;BME280;10218;42.874;25.320;2023-03-25T05:17:44;96607.44;;;9.67;100.00
20115;BME280;10218;42.874;25.320;2023-03-25T05:20:11;96622.91;;;9.71;100.00
20115;BME280;10218;42.874;25.320;2023-03-25T05:22:40;96616.59;;;10.39;100.00
20115;BME280;10218;42.874;25.320;2023-03-25T05:25:09;96598.94;;;10.01;100.00
20115;BME280;10218;42.874;25.320;2023-03-25T05:27:36;96614.50;;;10.12;100.00
20115;BME280;10218;42.874;25.320;2023-03-25T05:30:05;96615.16;;;10.14;100.00
20115;BME280;10218;42.874;25.320;2023-03-25T05:32:33;96611.97;;;10.62;100.00
20115;BME280;10218;42.874;25.320;2023-03-25T05:35:01;96615.66;;;10.76;100.00
20115;BME280;10218;42.874;25.320;2023-03-25T05:37:29;96613.44;;;10.80;100.00
20115;BME280;10218;42.874;25.320;2023-03-25T05:39:56;96612.62;;;10.64;100.00
20115;BME280;10218;42.874;25.320;2023-03-25T05:42:24;96614.00;;;10.75;100.00
20115;BME280;10218;42.874;25.320;2023-03-25T05:44:51;96600.44;;;11.12;100.00
20115;BME280;10218;42.874;25.320;2023-03-25T05:47:21;96597.53;;;11.29;97.69
20115;BME280;10218;42.874;25.320;2023-03-25T05:49:50;96606.12;;;11.45;96.63
20115;BME280;10218;42.874;25.320;2023-03-25T05:52:19;96608.94;;;11.37;96.14
20115;BME280;10218;42.874;25.320;2023-03-25T05:54:46;96609.31;;;11.34;96.19
20115;BME280;10218;42.874;25.320;2023-03-25T05:57:16;96615.50;;;11.56;97.23
20115;BME280;10218;42.874;25.320;2023-03-25T05:59:43;96603.56;;;11.58;93.58
20115;BME280;10218;42.874;25.320;2023-03-25T06:02:13;96614.19;;;11.88;89.99
20115;BME280;10218;42.874;25.320;2023-03-25T06:04:41;96607.22;;;11.51;94.82
20115;BME280;10218;42.874;25.320;2023-03-25T06:07:13;96607.59;;;11.90;91.21
20115;BME280;10218;42.874;25.320;2023-03-25T06:09:46;96608.94;;;12.35;87.74
20115;BME280;10218;42.874;25.320;2023-03-25T06:12:18;96599.84;;;12.64;80.90
20115;BME280;10218;42.874;25.320;2023-03-25T06:14:46;96593.53;;;12.85;77.25
20115;BME280;10218;42.874;25.320;2023-03-25T06:17:15;96608.22;;;12.55;82.62
20115;BME280;10218;42.874;25.320;2023-03-25T06:19:44;96608.81;;;12.84;83.62
20115;BME280;10218;42.874;25.320;2023-03-25T06:22:12;96610.28;;;12.94;80.47
20115;BME280;10218;42.874;25.320;2023-03-25T06:24:39;96609.31;;;13.08;79.15
20115;BME280;10218;42.874;25.320;2023-03-25T06:27:11;96617.00;;;13.17;77.01
20115;BME280;10218;42.874;25.320;2023-03-25T06:29:38;96611.75;;;13.77;72.67
20115;BME280;10218;42.874;25.320;2023-03-25T06:32:11;96611.56;;;13.65;72.47
20115;BME280;10218;42.874;25.320;2023-03-25T06:34:39;96604.94;;;13.94;67.99
20115;BME280;10218;42.874;25.320;2023-03-25T06:37:09;96609.06;;;13.83;66.57
20115;BME280;10218;42.874;25.320;2023-03-25T06:39:36;96594.84;;;14.16;63.74
20115;BME280;10218;42.874;25.320;2023-03-25T06:42:04;96613.94;;;14.85;61.51
20115;BME280;10218;42.874;25.320;2023-03-25T06:44:32;96607.38;;;15.63;57.67
20115;BME280;10218;42.874;25.320;2023-03-25T06:47:02;96605.22;;;15.34;58.67
20115;BME280;10218;42.874;25.320;2023-03-25T06:49:31;96608.75;;;15.72;58.80
20115;BME280;10218;42.874;25.320;2023-03-25T06:51:58;96618.19;;;15.57;57.11
20115;BME280;10218;42.874;25.320;2023-03-25T06:54:25;96622.03;;;15.99;56.46
20115;BME280;10218;42.874;25.320;2023-03-25T06:56:52;96608.41;;;16.61;54.18
20115;BME280;10218;42.874;25.320;2023-03-25T06:59:19;96617.72;;;17.02;53.47
20115;BME280;10218;42.874;25.320;2023-03-25T07:01:46;96621.78;;;16.75;53.68
20115;BME280;10218;42.874;25.320;2023-03-25T07:04:13;96622.06;;;17.03;52.13
20115;BME280;10218;42.874;25.320;2023-03-25T07:06:41;96620.41;;;17.02;51.88
20115;BME280;10218;42.874;25.320;2023-03-25T07:09:08;96617.06;;;17.84;50.82
20115;BME280;10218;42.874;25.320;2023-03-25T07:11:35;96611.81;;;18.01;50.00
20115;BME280;10218;42.874;25.320;2023-03-25T07:14:02;96616.75;;;17.92;49.19
20115;BME280;10218;42.874;25.320;2023-03-25T07:16:29;96610.22;;;18.23;49.00
20115;BME280;10218;42.874;25.320;2023-03-25T07:18:56;96617.56;;;18.58;47.28
20115;BME280;10218;42.874;25.320;2023-03-25T07:21:25;96616.13;;;18.55;46.31
20115;BME280;10218;42.874;25.320;2023-03-25T07:23:52;96616.37;;;19.29;43.54
20115;BME280;10218;42.874;25.320;2023-03-25T07:26:19;96613.34;;;19.65;42.60
20115;BME280;10218;42.874;25.320;2023-03-25T07:28:46;96620.06;;;19.22;42.82
20115;BME280;10218;42.874;25.320;2023-03-25T07:31:14;96617.03;;;19.59;42.57
20115;BME280;10218;42.874;25.320;2023-03-25T07:33:42;96616.28;;;19.63;43.23
20115;BME280;10218;42.874;25.320;2023-03-25T07:36:10;96613.53;;;19.92;41.77
20115;BME280;10218;42.874;25.320;2023-03-25T07:38:37;96620.72;;;20.15;42.06
20115;BME280;10218;42.874;25.320;2023-03-25T07:41:07;96612.84;;;20.30;41.33
20115;BME280;10218;42.874;25.320;2023-03-25T07:43:34;96612.44;;;20.04;39.28
20115;BME280;10218;42.874;25.320;2023-03-25T07:46:01;96613.38;;;19.42;38.70
20115;BME280;10218;42.874;25.320;2023-03-25T07:48:29;96614.25;;;20.49;38.40
20115;BME280;10218;42.874;25.320;2023-03-25T07:50:57;96612.34;;;21.05;38.58
20115;BME280;10218;42.874;25.320;2023-03-25T07:53:24;96613.91;;;21.88;36.57
20115;BME280;10218;42.874;25.320;2023-03-25T07:55:51;96618.22;;;20.97;37.79
20115;BME280;10218;42.874;25.320;2023-03-25T07:58:19;96621.41;;;20.72;38.22
20115;BME280;10218;42.874;25.320;2023-03-25T08:00:46;96617.72;;;21.38;36.68
20115;BME280;10218;42.874;25.320;2023-03-25T08:03:13;96614.72;;;20.63;37.60
20115;BME280;10218;42.874;25.320;2023-03-25T08:05:47;96620.31;;;20.23;37.42
20115;BME280;10218;42.874;25.320;2023-03-25T08:08:15;96618.38;;;21.72;36.87
20115;BME280;10218;42.874;25.320;2023-03-25T08:10:43;96626.22;;;22.22;37.05
20115;BME280;10218;42.874;25.320;2023-03-25T08:13:10;96618.22;;;20.97;37.33
20115;BME280;10218;42.874;25.320;2023-03-25T08:15:39;96615.28;;;21.20;37.34
20115;BME280;10218;42.874;25.320;2023-03-25T08:18:06;96618.50;;;20.12;38.06
20115;BME280;10218;42.874;25.320;2023-03-25T08:20:34;96615.59;;;21.45;37.95
20115;BME280;10218;42.874;25.320;2023-03-25T08:23:02;96616.91;;;21.64;36.21
20115;BME280;10218;42.874;25.320;2023-03-25T08:25:30;96615.72;;;21.55;37.93
20115;BME280;10218;42.874;25.320;2023-03-25T08:27:57;96621.50;;;21.15;37.70
20115;BME280;10218;42.874;25.320;2023-03-25T08:30:24;96621.69;;;22.33;36.97
20115;BME280;10218;42.874;25.320;2023-03-25T08:32:51;96612.53;;;22.12;36.19
20115;BME280;10218;42.874;25.320;2023-03-25T08:35:21;96615.06;;;22.18;35.23
20115;BME280;10218;42.874;25.320;2023-03-25T08:37:49;96611.91;;;22.05;35.74
20115;BME280;10218;42.874;25.320;2023-03-25T08:40:17;96609.72;;;23.65;34.78
20115;BME280;10218;42.874;25.320;2023-03-25T08:42:44;96613.19;;;22.24;34.63
20115;BME280;10218;42.874;25.320;2023-03-25T08:45:12;96606.03;;;22.82;35.43
20115;BME280;10218;42.874;25.320;2023-03-25T08:47:42;96596.94;;;23.80;35.33
20115;BME280;10218;42.874;25.320;2023-03-25T08:50:09;96598.94;;;24.51;34.45
20115;BME280;10218;42.874;25.320;2023-03-25T08:52:37;96605.22;;;23.38;34.52
20115;BME280;10218;42.874;25.320;2023-03-25T08:55:05;96598.34;;;24.08;34.13
20115;BME280;10218;42.874;25.320;2023-03-25T08:57:37;96605.16;;;25.02;33.70
20115;BME280;10218;42.874;25.320;2023-03-25T09:00:05;96596.75;;;24.27;33.80
20115;BME280;10218;42.874;25.320;2023-03-25T09:02:42;96588.91;;;22.91;35.38
20115;BME280;10218;42.874;25.320;2023-03-25T09:05:11;96596.22;;;24.36;33.97
20115;BME280;10218;42.874;25.320;2023-03-25T09:07:38;96594.78;;;24.03;34.44
20115;BME280;10218;42.874;25.320;2023-03-25T09:10:06;96579.81;;;24.31;33.20
20115;BME280;10218;42.874;25.320;2023-03-25T09:12:33;96584.66;;;24.84;33.14
20115;BME280;10218;42.874;25.320;2023-03-25T09:15:00;96583.50;;;23.59;35.05
20115;BME280;10218;42.874;25.320;2023-03-25T09:17:28;96577.63;;;24.12;33.93
20115;BME280;10218;42.874;25.320;2023-03-25T09:19:55;96574.34;;;24.15;33.95
20115;BME280;10218;42.874;25.320;2023-03-25T09:22:23;96575.25;;;25.36;32.58
20115;BME280;10218;42.874;25.320;2023-03-25T09:24:50;96579.88;;;23.43;33.92
20115;BME280;10218;42.874;25.320;2023-03-25T09:27:17;96575.25;;;23.43;34.51
20115;BME280;10218;42.874;25.320;2023-03-25T09:29:44;96572.94;;;24.03;33.13
20115;BME280;10218;42.874;25.320;2023-03-25T09:32:11;96576.66;;;25.87;31.80
20115;BME280;10218;42.874;25.320;2023-03-25T09:34:39;96560.72;;;24.46;32.21
20115;BME280;10218;42.874;25.320;2023-03-25T09:37:06;96562.00;;;25.04;32.07
20115;BME280;10218;42.874;25.320;2023-03-25T09:39:33;96571.31;;;24.78;32.63
20115;BME280;10218;42.874;25.320;2023-03-25T09:47:38;96559.44;;;26.55;30.70
20115;BME280;10218;42.874;25.320;2023-03-25T09:50:10;96562.81;;;24.99;33.03
20115;BME280;10218;42.874;25.320;2023-03-25T09:55:20;96556.94;;;26.29;31.29
20115;BME280;10218;42.874;25.320;2023-03-25T09:57:56;96552.56;;;25.89;31.35
20115;BME280;10218;42.874;25.320;2023-03-25T10:00:26;96548.06;;;26.71;31.32
20115;BME280;10218;42.874;25.320;2023-03-25T10:11:05;96536.81;;;26.10;30.77
20115;BME280;10218;42.874;25.320;2023-03-25T10:24:27;96517.28;;;26.79;30.07
20115;BME280;10218;42.874;25.320;2023-03-25T10:27:01;96517.87;;;27.24;29.56
20115;BME280;10218;42.874;25.320;2023-03-25T10:29:40;96503.31;;;26.18;31.10
20115;BME280;10218;42.874;25.320;2023-03-25T10:32:23;96503.22;;;26.00;32.51
20115;BME280;10218;42.874;25.320;2023-03-25T10:34:51;96501.28;;;26.92;30.88
20115;BME280;10218;42.874;25.320;2023-03-25T10:37:29;96496.78;;;26.48;31.33
20115;BME280;10218;42.874;25.320;2023-03-25T10:40:11;96490.94;;;27.07;30.15
20115;BME280;10218;42.874;25.320;2023-03-25T10:43:27;96486.00;;;25.55;31.57
20115;BME280;10218;42.874;25.320;2023-03-25T10:45:31;96483.16;;;25.26;31.64
20115;BME280;10218;42.874;25.320;2023-03-25T10:48:08;96475.00;;;27.71;30.42
20115;BME280;10218;42.874;25.320;2023-03-25T10:50:40;96473.59;;;27.54;29.27
20115;BME280;10218;42.874;25.320;2023-03-25T10:53:34;96475.16;;;26.47;30.55
20115;BME280;10218;42.874;25.320;2023-03-25T10:56:03;96461.22;;;27.57;29.84
20115;BME280;10218;42.874;25.320;2023-03-25T10:58:31;96460.94;;;28.56;28.94
20115;BME280;10218;42.874;25.320;2023-03-25T11:00:59;96466.97;;;27.74;29.68
20115;BME280;10218;42.874;25.320;2023-03-25T11:03:31;96466.06;;;27.22;29.33
20115;BME280;10218;42.874;25.320;2023-03-25T11:06:00;96458.75;;;26.13;30.58
20115;BME280;10218;42.874;25.320;2023-03-25T11:08:28;96448.00;;;28.10;29.93
20115;BME280;10218;42.874;25.320;2023-03-25T11:10:55;96446.06;;;27.59;29.94
20115;BME280;10218;42.874;25.320;2023-03-25T11:13:27;96451.63;;;26.69;30.39
20115;BME280;10218;42.874;25.320;2023-03-25T11:16:00;96457.94;;;28.06;29.85
20115;BME280;10218;42.874;25.320;2023-03-25T11:18:38;96456.63;;;27.10;29.90
20115;BME280;10218;42.874;25.320;2023-03-25T11:21:10;96448.94;;;26.41;29.85
20115;BME280;10218;42.874;25.320;2023-03-25T11:23:45;96449.84;;;27.26;29.64
20115;BME280;10218;42.874;25.320;2023-03-25T11:26:20;96445.50;;;29.14;27.11
20115;BME280;10218;42.874;25.320;2023-03-25T11:28:54;96439.34;;;28.35;28.30
20115;BME280;10218;42.874;25.320;2023-03-25T11:31:24;96421.47;;;26.22;29.27
20115;BME280;10218;42.874;25.320;2023-03-25T11:39:28;96431.41;;;28.61;27.17
20115;BME280;10218;42.874;25.320;2023-03-25T11:41:56;96423.59;;;28.08;27.90
20115;BME280;10218;42.874;25.320;2023-03-25T11:44:27;96421.06;;;28.99;26.88
20115;BME280;10218;42.874;25.320;2023-03-25T11:46:57;96424.19;;;27.17;27.70
20115;BME280;10218;42.874;25.320;2023-03-25T11:49:27;96425.22;;;27.40;27.40
20115;BME280;10218;42.874;25.320;2023-03-25T11:52:08;96426.00;;;25.30;29.70
20115;BME280;10218;42.874;25.320;2023-03-25T11:54:39;96425.72;;;26.33;28.70
20115;BME280;10218;42.874;25.320;2023-03-25T11:57:13;96407.78;;;27.87;27.72
20115;BME280;10218;42.874;25.320;2023-03-25T11:59:44;96418.13;;;27.90;27.15
20115;BME280;10218;42.874;25.320;2023-03-25T12:02:22;96420.34;;;28.53;26.82
20115;BME280;10218;42.874;25.320;2023-03-25T12:05:03;96422.25;;;28.66;26.63
20115;BME280;10218;42.874;25.320;2023-03-25T12:07:46;96410.47;;;27.54;27.42
20115;BME280;10218;42.874;25.320;2023-03-25T12:10:34;96402.25;;;27.17;28.22
20115;BME280;10218;42.874;25.320;2023-03-25T12:13:10;96411.44;;;26.83;28.67
20115;BME280;10218;42.874;25.320;2023-03-25T12:15:43;96402.66;;;26.39;28.74
20115;BME280;10218;42.874;25.320;2023-03-25T12:23:31;96408.81;;;28.04;26.89
20115;BME280;10218;42.874;25.320;2023-03-25T12:26:12;96407.59;;;27.97;27.47
20115;BME280;10218;42.874;25.320;2023-03-25T12:37:18;96397.75;;;30.75;24.01
20115;BME280;10218;42.874;25.320;2023-03-25T12:43:01;96397.69;;;31.14;24.15
20115;BME280;10218;42.874;25.320;2023-03-25T12:48:46;96409.66;;;29.77;25.50
20115;BME280;10218;42.874;25.320;2023-03-25T12:51:36;96395.63;;;27.74;27.26
20115;BME280;10218;42.874;25.320;2023-03-25T13:00:07;96389.69;;;27.99;27.05
20115;BME280;10218;42.874;25.320;2023-03-25T13:06:22;96388.13;;;26.86;27.71
20115;BME280;10218;42.874;25.320;2023-03-25T13:09:15;96386.81;;;26.36;27.93
20115;BME280;10218;42.874;25.320;2023-03-25T13:11:58;96386.97;;;25.24;29.58
20115;BME280;10218;42.874;25.320;2023-03-25T13:14:43;96383.56;;;26.34;28.84
20115;BME280;10218;42.874;25.320;2023-03-25T13:17:22;96379.78;;;26.30;28.36
20115;BME280;10218;42.874;25.320;2023-03-25T13:19:52;96367.84;;;25.53;29.45
20115;BME280;10218;42.874;25.320;2023-03-25T13:22:24;96371.50;;;25.77;29.28
20115;BME280;10218;42.874;25.320;2023-03-25T13:24:57;96377.62;;;25.25;30.59
20115;BME280;10218;42.874;25.320;2023-03-25T13:27:37;96384.28;;;24.55;31.09
20115;BME280;10218;42.874;25.320;2023-03-25T13:30:15;96374.66;;;23.48;31.93
20115;BME280;10218;42.874;25.320;2023-03-25T13:32:45;96370.28;;;25.21;30.98
20115;BME280;10218;42.874;25.320;2023-03-25T13:35:17;96368.34;;;24.77;30.84
20115;BME280;10218;42.874;25.320;2023-03-25T13:37:49;96361.12;;;25.40;30.37
20115;BME280;10218;42.874;25.320;2023-03-25T13:40:25;96364.81;;;23.92;31.43
20115;BME280;10218;42.874;25.320;2023-03-25T13:45:59;96362.28;;;24.85;30.76
20115;BME280;10218;42.874;25.320;2023-03-25T13:48:53;96360.19;;;23.52;32.06
20115;BME280;10218;42.874;25.320;2023-03-25T13:51:22;96367.34;;;24.58;31.38
20115;BME280;10218;42.874;25.320;2023-03-25T13:56:54;96360.41;;;24.21;31.74
20115;BME280;10218;42.874;25.320;2023-03-25T14:05:50;96355.47;;;24.03;33.32
20115;BME280;10218;42.874;25.320;2023-03-25T14:14:23;96352.53;;;23.79;33.06
20115;BME280;10218;42.874;25.320;2023-03-25T14:16:56;96354.44;;;23.89;33.09
20115;BME280;10218;42.874;25.320;2023-03-25T14:19:34;96353.38;;;23.44;33.06
20115;BME280;10218;42.874;25.320;2023-03-25T14:22:12;96358.81;;;23.29;33.55
20115;BME280;10218;42.874;25.320;2023-03-25T14:24:39;96364.22;;;22.99;33.85
20115;BME280;10218;42.874;25.320;2023-03-25T14:29:55;96360.53;;;22.48;34.55
20115;BME280;10218;42.874;25.320;2023-03-25T14:32:31;96360.06;;;22.71;35.06
20115;BME280;10218;42.874;25.320;2023-03-25T14:48:32;96351.94;;;21.72;37.44
20115;BME280;10218;42.874;25.320;2023-03-25T14:54:02;96351.72;;;21.79;37.18
20115;BME280;10218;42.874;25.320;2023-03-25T14:56:41;96349.41;;;21.60;37.76
20115;BME280;10218;42.874;25.320;2023-03-25T14:59:15;96353.72;;;21.56;37.44
20115;BME280;10218;42.874;25.320;2023-03-25T15:01:44;96356.88;;;21.38;38.02
20115;BME280;10218;42.874;25.320;2023-03-25T15:04:22;96353.72;;;21.56;38.48
20115;BME280;10218;42.874;25.320;2023-03-25T15:06:50;96346.06;;;21.48;38.16
20115;BME280;10218;42.874;25.320;2023-03-25T15:09:19;96358.50;;;21.12;39.28
20115;BME280;10218;42.874;25.320;2023-03-25T15:12:01;96360.00;;;21.25;39.42
20115;BME280;10218;42.874;25.320;2023-03-25T15:14:35;96347.81;;;21.01;39.64
20115;BME280;10218;42.874;25.320;2023-03-25T15:17:05;96347.22;;;20.99;39.23
20115;BME280;10218;42.874;25.320;2023-03-25T15:20:25;96358.31;;;20.65;39.04
20115;BME280;10218;42.874;25.320;2023-03-25T15:24:05;96364.41;;;21.31;39.04
20115;BME280;10218;42.874;25.320;2023-03-25T15:26:38;96364.41;;;21.31;39.04
20115;BME280;10218;42.874;25.320;2023-03-25T15:29:19;96370.09;;;20.76;39.55
20115;BME280;10218;42.874;25.320;2023-03-25T15:35:02;96368.69;;;20.46;40.72